Maple City, KS

4:51 PM CDT on July 29, 2014 (GMT -0500)
Strother (KWLD) Elev 1158 ft | 37.17 °N, 97.04 °W | Change Station

Current weather conditions updated 57 minutes ago

Mostly Cloudy
Mostly Cloudy
90 °F
Feels Like 90 °F
N
6
Wind Variable Wind from SSE

Tomorrow is forecast to be Much Cooler than today. Rain.

Today
High -- | Low -- °F
--% Chance of Precip.
Yesterday
High -- | Low -- °F
Precip. -- in
6:29 AM 8:36 PM
Waxing Crescent, 8% visible
Pressure 30.08 in
Visibility 10.0 miles
Clouds Mostly Cloudy 7000 ft
Heat Index 90 °F
Dew Point 62 °F
Humidity 39%
Rainfall 0.00 in
Snow Depth Not available.
UV 5 out of 12
Pollen 6.30 out of 12
Air Quality Not available.
Flu Activity Not available.
METAR KWLD 292054Z AUTO 15005KT 10SM BKN070 32/17 A3012 RMK AO2 SLP186 T03220167 58017

More Conditions Fewer Conditions

Pressure 30.08 in
Visibility 10.0 miles
Clouds Mostly Cloudy 7000 ft
Heat Index 90 °F
Dew Point 62 °F
Humidity 39%
Rainfall 0.00 in
Snow Depth Not available.
UV 5 out of 12
Pollen 6.30 out of 12
Air Quality Not available.
Flu Activity Not available.
METAR KWLD 292054Z AUTO 15005KT 10SM BKN070 32/17 A3012 RMK AO2 SLP186 T03220167 58017

More Conditions Fewer Conditions

10-Day Weather Forecast

Almanac

Astronomy

Jul. 29, 2014 Rise Set
Actual Time 6:29 AM CDT 8:36 PM CDT
Civil Twilight 6:00 AM CDT 9:05 PM CDT
Nautical Twilight 5:25 AM CDT 9:41 PM CDT
Astronomical Twilight 4:46 AM CDT 10:19 PM CDT
Moon 9:02 AM CDT 9:55 PM CDT
Length of Visible Light 15h 05m
Length of Day
14h 07m
Tomorrow will be 1m 43s shorter.
Waxing Crescent, 8% of the Moon is Illuminated
Today
Waxing Crescent
Aug 3
First Quarter
Aug 10
Full
Aug 17
Last Quarter
Aug 25
New

Today's Extremes

State Highs State Lows

Community

WunderPhotos

Upload Photos

1,738,878 photos uploaded!

Nearby

Snow Depth

Station Depth Elevation
No new snow has been reported.

Earthquake Activity

City Distance Mag. Time & Date
Guthrie, Oklahoma 97 miles 2.7 5:27 AM CDT
2014-07-24
Langston, Oklahoma 87 miles 3.2 9:03 AM CDT
2014-07-23
Langston, Oklahoma 86 miles 3.3 9:02 PM CDT
2014-07-22
Guthrie, Oklahoma 93 miles 2.5 7:25 PM CDT
2014-07-22
Minimum magnitude displayed is 2.5.

Coastal Water Temperatures

Place Temperature
No Stations Reporting

Nearby Weather Stations

Station Location Temp. Heat Index Dew Point Humidity Wind Precip. Elev Updated Type
The Boonies, Winfield, KS 88.3 °F 85 °F 9 °F 5% SE  at  6.8 mph 0.00 in / hr 1207 ft 4:50 PM CDT Normal
Randy's Backyard, Winfield, KS 92.3 °F 94 °F 65 °F 40% SE  at  0.0 mph 0.00 in / hr 1138 ft 4:51 PM CDT Rapid Fire
MesoWest ABRAMS , Arkansas City, KS 88 °F 88 °F 62 °F 41% SSE  at  4 mph 0.00 in / hr 1193 ft 3:00 PM CDT MADIS
Kaw City, OK 90.7 °F 92 °F 63 °F 40% SE  at  0.5 mph 0.00 in / hr 1127 ft 4:45 PM CDT Normal
Atlanta Weather, Atlanta, KS 85.5 °F 88 °F 66 °F 52% ESE  at  6.8 mph - / hr 1447 ft 4:37 PM CDT Normal

Show More Stations Show Fewer Stations